createdAt,value
2023-04-03T00:02:15.875Z,-0.10
2023-04-03T00:04:42.742Z,-0.10
2023-04-03T00:07:09.606Z,-0.20
2023-04-03T00:09:36.202Z,-0.20
2023-04-03T00:12:02.784Z,-0.20
2023-04-03T00:14:29.388Z,-0.20
2023-04-03T00:16:56.024Z,-0.20
2023-04-03T00:19:22.848Z,-0.30
2023-04-03T00:21:49.455Z,-0.30
2023-04-03T00:24:16.102Z,-0.30
2023-04-03T00:26:42.730Z,-0.30
2023-04-03T00:29:09.262Z,-0.30
2023-04-03T00:31:36.084Z,-0.40
2023-04-03T00:34:02.795Z,-0.40
2023-04-03T00:36:29.562Z,-0.50
2023-04-03T00:38:56.250Z,-0.50
2023-04-03T00:41:23.056Z,-0.60
2023-04-03T00:43:49.717Z,-0.60
2023-04-03T00:46:16.534Z,-0.70
2023-04-03T00:48:45.878Z,-0.70
2023-04-03T00:51:17.412Z,-0.80
2023-04-03T00:53:52.822Z,-0.80
2023-04-03T00:56:23.342Z,-0.80
2023-04-03T00:58:55.468Z,-0.80
2023-04-03T01:01:25.961Z,-0.90
2023-04-03T01:03:52.911Z,-0.90
2023-04-03T01:06:26.042Z,-0.90
2023-04-03T01:08:53.882Z,-1.00
2023-04-03T01:11:21.559Z,-1.00
2023-04-03T01:13:48.832Z,-1.10
2023-04-03T01:16:15.551Z,-1.10
2023-04-03T01:18:43.475Z,-1.10
2023-04-03T01:21:28.418Z,-1.20
2023-04-03T01:24:08.542Z,-1.20
2023-04-03T01:26:36.566Z,-1.20
2023-04-03T01:29:04.322Z,-1.20
2023-04-03T01:31:48.828Z,-1.20
2023-04-03T01:34:15.919Z,-1.20
2023-04-03T01:36:42.510Z,-1.20
2023-04-03T01:39:09.087Z,-1.20
2023-04-03T01:41:35.920Z,-1.10
2023-04-03T01:44:03.004Z,-1.10
2023-04-03T01:46:29.571Z,-1.10
2023-04-03T01:48:56.451Z,-1.00
2023-04-03T01:51:23.041Z,-1.00
2023-04-03T01:53:49.623Z,-1.00
2023-04-03T01:56:16.613Z,-1.00
2023-04-03T01:58:43.161Z,-1.10
2023-04-03T02:01:09.829Z,-1.10
2023-04-03T02:03:36.551Z,-1.00
2023-04-03T02:06:03.419Z,-1.00
2023-04-03T02:08:30.218Z,-0.90
2023-04-03T02:10:56.855Z,-0.90
2023-04-03T02:13:23.532Z,-0.90
2023-04-03T02:15:50.302Z,-0.90
2023-04-03T02:18:17.038Z,-0.90
2023-04-03T02:20:43.640Z,-0.90
2023-04-03T02:23:10.692Z,-1.00
2023-04-03T02:25:38.907Z,-1.00
2023-04-03T02:28:06.077Z,-1.00
2023-04-03T02:30:32.628Z,-1.10
2023-04-03T02:32:59.301Z,-1.00
2023-04-03T02:35:25.930Z,-1.10
2023-04-03T02:37:52.550Z,-1.10
2023-04-03T02:40:19.442Z,-1.10
2023-04-03T02:42:46.160Z,-1.10
2023-04-03T02:45:12.823Z,-1.10
2023-04-03T02:47:39.486Z,-1.10
2023-04-03T02:50:06.403Z,-1.10
2023-04-03T02:52:33.067Z,-1.10
2023-04-03T02:54:59.670Z,-1.10
2023-04-03T02:57:26.298Z,-1.20
2023-04-03T02:59:52.871Z,-1.20
2023-04-03T03:02:19.683Z,-1.30
2023-04-03T03:04:46.244Z,-1.40
2023-04-03T03:07:12.919Z,-1.40
2023-04-03T03:09:39.520Z,-1.40
2023-04-03T03:12:06.205Z,-1.40
2023-04-03T03:14:32.757Z,-1.40
2023-04-03T03:16:59.367Z,-1.40
2023-04-03T03:19:26.027Z,-1.50
2023-04-03T03:21:52.953Z,-1.50
2023-04-03T03:24:19.513Z,-1.50
2023-04-03T03:26:46.076Z,-1.60
2023-04-03T03:29:12.642Z,-1.60
2023-04-03T03:31:39.255Z,-1.60
2023-04-03T03:34:05.862Z,-1.60
2023-04-03T03:36:32.656Z,-1.70
2023-04-03T03:38:59.244Z,-1.70
2023-04-03T03:41:26.189Z,-1.60
2023-04-03T03:43:53.481Z,-1.60
2023-04-03T03:46:20.199Z,-1.70
2023-04-03T03:48:46.851Z,-1.70
2023-04-03T03:51:13.480Z,-1.60
2023-04-03T03:53:40.141Z,-1.60
2023-04-03T03:56:07.746Z,-1.70
2023-04-03T03:58:34.401Z,-1.70
2023-04-03T04:01:06.366Z,-1.70
2023-04-03T04:03:33.554Z,-1.70
2023-04-03T04:06:00.512Z,-1.80
2023-04-03T04:08:27.102Z,-1.80
2023-04-03T04:10:54.157Z,-1.80
2023-04-03T04:13:21.049Z,-1.80
2023-04-03T04:15:47.601Z,-1.80
2023-04-03T04:18:14.162Z,-1.80
2023-04-03T04:20:40.852Z,-1.80
2023-04-03T04:23:07.460Z,-1.90
2023-04-03T04:25:34.264Z,-1.80
2023-04-03T04:28:01.067Z,-1.90
2023-04-03T04:30:28.434Z,-1.90
2023-04-03T04:32:55.301Z,-1.80
2023-04-03T04:35:21.951Z,-1.80
2023-04-03T04:37:48.580Z,-1.90
2023-04-03T04:40:15.568Z,-1.90
2023-04-03T04:42:42.170Z,-1.90
2023-04-03T04:45:09.006Z,-1.90
2023-04-03T04:47:35.583Z,-1.90
2023-04-03T04:50:02.150Z,-1.90
2023-04-03T04:52:28.717Z,-1.80
2023-04-03T04:54:55.339Z,-1.90
2023-04-03T04:57:22.122Z,-1.90
2023-04-03T04:59:48.716Z,-1.90
2023-04-03T05:02:15.471Z,-1.90
2023-04-03T05:04:42.404Z,-1.80
2023-04-03T05:07:08.999Z,-1.90
2023-04-03T05:09:35.662Z,-1.80
2023-04-03T05:12:03.800Z,-1.70
2023-04-03T05:14:30.915Z,-1.70
2023-04-03T05:16:58.767Z,-1.70
2023-04-03T05:19:25.382Z,-1.70
2023-04-03T05:21:52.122Z,-1.70
2023-04-03T05:24:18.745Z,-1.60
2023-04-03T05:26:45.351Z,-1.60
2023-04-03T05:29:12.151Z,-1.50
2023-04-03T05:31:38.872Z,-1.40
2023-04-03T05:34:05.986Z,-1.40
2023-04-03T05:36:32.800Z,-1.30
2023-04-03T05:38:59.602Z,-1.30
2023-04-03T05:41:26.518Z,-1.10
2023-04-03T05:43:53.108Z,-1.00
2023-04-03T05:46:21.414Z,-0.80
2023-04-03T05:48:48.571Z,-0.80
2023-04-03T05:51:18.679Z,-0.80
2023-04-03T05:53:47.252Z,-0.70
2023-04-03T05:56:14.473Z,-0.70
2023-04-03T05:58:41.138Z,-0.60
2023-04-03T06:01:07.739Z,-0.20
2023-04-03T06:03:34.887Z,0.80
2023-04-03T06:06:05.169Z,2.20
2023-04-03T06:08:31.914Z,3.70
2023-04-03T06:10:58.538Z,5.10
2023-04-03T06:13:25.138Z,6.40
2023-04-03T06:15:51.779Z,7.60
2023-04-03T06:18:18.350Z,8.60
2023-04-03T06:20:45.023Z,9.60
2023-04-03T06:23:11.716Z,10.50
2023-04-03T06:25:38.322Z,11.30
2023-04-03T06:28:04.913Z,12.30
2023-04-03T06:30:31.772Z,13.70
2023-04-03T06:32:58.408Z,14.80
2023-04-03T06:35:25.047Z,16.00
2023-04-03T06:37:51.717Z,16.90
2023-04-03T06:40:22.725Z,17.40
2023-04-03T06:42:49.282Z,18.10
2023-04-03T06:45:16.219Z,18.60
2023-04-03T06:47:42.944Z,18.90
2023-04-03T06:50:12.561Z,19.40
2023-04-03T06:52:40.993Z,19.90
2023-04-03T06:55:09.147Z,20.30
2023-04-03T06:57:36.272Z,20.60
2023-04-03T07:00:05.332Z,20.50
2023-04-03T07:02:32.024Z,20.60
2023-04-03T07:04:58.640Z,21.00
2023-04-03T07:07:25.219Z,21.30
2023-04-03T07:09:52.118Z,21.30
2023-04-03T07:12:18.759Z,21.30
2023-04-03T07:14:45.306Z,21.50
2023-04-03T07:17:11.976Z,22.00
2023-04-03T07:19:38.828Z,22.50
2023-04-03T07:22:05.381Z,23.00
2023-04-03T07:24:32.470Z,23.20
2023-04-03T07:26:59.033Z,23.50
2023-04-03T07:29:25.618Z,23.90
2023-04-03T07:31:52.306Z,23.90
2023-04-03T07:34:19.004Z,23.60
2023-04-03T07:36:45.686Z,24.00
2023-04-03T07:39:12.373Z,23.90
2023-04-03T07:41:39.168Z,24.30
2023-04-03T07:44:06.406Z,23.80
2023-04-03T07:46:33.289Z,23.80
2023-04-03T07:48:59.899Z,24.10
2023-04-03T07:51:27.642Z,24.50
2023-04-03T07:53:54.220Z,23.90
2023-04-03T07:56:21.608Z,24.50
2023-04-03T07:58:48.305Z,25.70
2023-04-03T08:01:14.928Z,26.20
2023-04-03T08:03:41.671Z,27.00
2023-04-03T08:06:15.698Z,26.90
2023-04-03T08:08:42.929Z,27.20
2023-04-03T08:11:11.412Z,27.00
2023-04-03T08:13:38.726Z,27.30
2023-04-03T08:16:16.767Z,27.20
2023-04-03T08:18:43.380Z,27.40
2023-04-03T08:21:11.688Z,26.70
2023-04-03T08:23:39.243Z,26.50
2023-04-03T08:26:14.570Z,26.70
2023-04-03T08:28:41.578Z,27.10
2023-04-03T08:31:12.719Z,26.80
2023-04-03T08:33:40.919Z,27.30
2023-04-03T08:36:16.718Z,27.60
2023-04-03T08:38:43.359Z,26.50
2023-04-03T08:41:16.394Z,26.20
2023-04-03T08:44:19.637Z,26.70
2023-04-03T08:47:11.755Z,26.40
2023-04-03T08:49:49.799Z,26.10
2023-04-03T08:52:20.167Z,25.90
2023-04-03T08:54:58.271Z,25.40
2023-04-03T08:57:43.503Z,26.70
2023-04-03T09:00:23.312Z,27.90
2023-04-03T09:02:55.213Z,29.10
2023-04-03T09:05:36.976Z,29.40
2023-04-03T09:08:29.374Z,29.80
2023-04-03T09:11:09.856Z,30.70
2023-04-03T09:14:14.767Z,30.60
2023-04-03T09:16:57.201Z,30.40
2023-04-03T09:19:35.775Z,29.90
2023-04-03T09:22:17.917Z,29.40
2023-04-03T09:24:47.861Z,30.40
2023-04-03T09:27:14.520Z,31.20
2023-04-03T09:29:44.339Z,31.30
2023-04-03T09:32:40.276Z,30.80
2023-04-03T09:35:29.855Z,30.50
2023-04-03T09:38:20.208Z,28.50
2023-04-03T09:41:07.258Z,27.10
2023-04-03T09:43:35.736Z,27.10
2023-04-03T09:46:27.384Z,27.90
2023-04-03T09:49:08.124Z,29.30
2023-04-03T09:51:35.515Z,29.90
2023-04-03T09:54:26.373Z,30.10
2023-04-03T09:56:54.704Z,30.00
2023-04-03T09:59:21.347Z,30.10
2023-04-03T10:02:00.733Z,29.60
2023-04-03T10:04:39.299Z,30.40
2023-04-03T10:07:36.772Z,30.20
2023-04-03T10:10:15.636Z,28.00
2023-04-03T10:12:42.452Z,28.80
2023-04-03T10:15:15.357Z,30.30
2023-04-03T10:18:06.421Z,31.50
2023-04-03T10:20:36.264Z,31.80
2023-04-03T10:23:29.886Z,31.30
2023-04-03T10:26:08.815Z,30.90
2023-04-03T10:28:52.901Z,30.80
2023-04-03T10:31:43.996Z,31.50
2023-04-03T10:34:25.911Z,31.80
2023-04-03T10:37:13.261Z,32.50
2023-04-03T10:39:58.184Z,31.30
2023-04-03T10:42:38.470Z,29.60
2023-04-03T10:45:28.548Z,29.20
2023-04-03T10:48:18.781Z,27.60
2023-04-03T10:51:04.408Z,28.60
2023-04-03T10:53:45.127Z,27.20
2023-04-03T10:56:23.707Z,25.70
2023-04-03T10:58:55.535Z,25.40
2023-04-03T11:01:33.939Z,26.50
2023-04-03T11:04:04.139Z,28.10
2023-04-03T11:06:42.103Z,29.40
2023-04-03T11:09:30.437Z,29.60
2023-04-03T11:12:05.014Z,30.40
2023-04-03T11:14:37.072Z,30.90
2023-04-03T11:17:13.043Z,31.30
2023-04-03T11:19:53.653Z,31.10
2023-04-03T11:22:43.353Z,29.30
2023-04-03T11:25:10.044Z,28.40
2023-04-03T11:27:57.105Z,28.90
2023-04-03T11:30:29.224Z,29.10
2023-04-03T11:33:12.156Z,29.70
2023-04-03T11:35:43.480Z,29.00
2023-04-03T11:38:20.844Z,29.60
2023-04-03T11:40:47.969Z,29.80
2023-04-03T11:43:30.569Z,29.70
2023-04-03T11:46:03.988Z,30.30
2023-04-03T11:48:32.423Z,30.80
2023-04-03T11:51:01.133Z,31.00
2023-04-03T11:53:35.460Z,30.80
2023-04-03T11:56:25.218Z,31.10
2023-04-03T11:59:11.725Z,31.10
2023-04-03T12:01:58.907Z,30.80
2023-04-03T12:04:27.596Z,30.40
2023-04-03T12:07:01.530Z,29.90
2023-04-03T12:09:30.166Z,28.60
2023-04-03T12:11:59.605Z,27.90
2023-04-03T12:14:27.059Z,26.80
2023-04-03T12:16:58.242Z,27.20
2023-04-03T12:19:42.069Z,27.20
2023-04-03T12:22:13.262Z,27.30
2023-04-03T12:24:43.221Z,27.80
2023-04-03T12:27:34.001Z,28.00
2023-04-03T12:30:16.137Z,27.90
2023-04-03T12:33:16.805Z,27.40
2023-04-03T12:35:55.331Z,26.70
2023-04-03T12:38:21.930Z,25.30
2023-04-03T12:41:22.253Z,25.10
2023-04-03T12:44:09.764Z,25.20
2023-04-03T12:46:45.655Z,25.00
2023-04-03T12:49:29.826Z,24.10
2023-04-03T12:51:56.704Z,24.40
2023-04-03T12:54:44.641Z,25.10
2023-04-03T12:57:29.467Z,25.50
2023-04-03T12:59:56.122Z,25.20
2023-04-03T13:02:31.971Z,25.50
2023-04-03T13:05:05.610Z,25.80
2023-04-03T13:07:39.635Z,26.10
2023-04-03T13:10:09.595Z,26.10
2023-04-03T13:12:53.864Z,26.10
2023-04-03T13:15:26.602Z,26.10
2023-04-03T13:17:54.690Z,26.10
2023-04-03T13:20:26.439Z,25.80
2023-04-03T13:22:56.288Z,25.60
2023-04-03T13:25:24.779Z,25.90
2023-04-03T13:27:53.816Z,25.70
2023-04-03T13:30:33.584Z,25.60
2023-04-03T13:33:03.820Z,24.50
2023-04-03T13:35:34.799Z,23.40
2023-04-03T13:38:06.036Z,21.80
2023-04-03T13:40:45.159Z,20.80
2023-04-03T13:43:21.318Z,20.50
2023-04-03T13:46:12.102Z,20.00
2023-04-03T13:48:44.116Z,19.60
2023-04-03T13:51:13.756Z,19.90
2023-04-03T13:53:48.015Z,20.30
2023-04-03T13:56:24.922Z,20.00
2023-04-03T13:59:13.252Z,19.90
2023-04-03T14:01:42.910Z,18.50
2023-04-03T14:04:20.131Z,17.20
2023-04-03T14:06:48.283Z,16.40
2023-04-03T14:09:16.255Z,16.20
2023-04-03T14:11:43.650Z,16.50
2023-04-03T14:14:27.763Z,16.90
2023-04-03T14:16:57.572Z,16.80
2023-04-03T14:19:30.557Z,17.30
2023-04-03T14:21:58.716Z,17.90
2023-04-03T14:24:25.677Z,18.40
2023-04-03T14:26:54.809Z,18.40
2023-04-03T14:29:22.975Z,18.30
2023-04-03T14:31:55.515Z,18.00
2023-04-03T14:34:27.356Z,17.50
2023-04-03T14:36:54.620Z,16.80
2023-04-03T14:39:21.204Z,16.10
2023-04-03T14:41:47.925Z,15.90
2023-04-03T14:44:14.614Z,16.00
2023-04-03T14:49:22.457Z,16.80
2023-04-03T14:51:49.334Z,17.00
2023-04-03T14:54:19.833Z,16.70
2023-04-03T14:56:46.865Z,15.90
2023-04-03T14:59:15.351Z,14.90
2023-04-03T15:01:43.121Z,14.00
2023-04-03T15:04:21.746Z,13.40
2023-04-03T15:06:49.715Z,13.20
2023-04-03T15:09:28.213Z,13.20
2023-04-03T15:11:55.958Z,13.30
2023-04-03T15:14:35.790Z,13.40
2023-04-03T15:17:04.939Z,13.50
2023-04-03T15:19:37.719Z,13.70
2023-04-03T15:22:04.393Z,13.60
2023-04-03T15:24:30.990Z,13.40
2023-04-03T15:26:57.593Z,13.30
2023-04-03T15:29:25.065Z,13.10
2023-04-03T15:31:54.580Z,13.00
2023-04-03T15:34:22.469Z,12.80
2023-04-03T15:36:50.220Z,12.60
2023-04-03T15:39:17.366Z,12.40
2023-04-03T15:41:44.527Z,12.20
2023-04-03T15:44:11.072Z,12.00
2023-04-03T15:46:38.185Z,11.80
2023-04-03T15:49:05.316Z,11.60
2023-04-03T15:51:32.388Z,11.50
2023-04-03T15:53:58.941Z,11.30
2023-04-03T15:56:25.502Z,11.20
2023-04-03T15:58:52.075Z,11.00
2023-04-03T16:01:18.739Z,10.80
2023-04-03T16:03:46.468Z,10.70
2023-04-03T16:06:18.504Z,10.60
2023-04-03T16:08:45.443Z,10.50
2023-04-03T16:11:11.988Z,10.40
2023-04-03T16:13:38.771Z,10.40
2023-04-03T16:16:06.193Z,10.30
2023-04-03T16:18:35.133Z,10.30
2023-04-03T16:21:01.906Z,10.30
2023-04-03T16:23:28.599Z,10.30
2023-04-03T16:25:55.154Z,10.10
2023-04-03T16:28:21.753Z,9.90
2023-04-03T16:30:50.009Z,9.70
2023-04-03T16:33:16.674Z,9.60
2023-04-03T16:35:44.492Z,9.50
2023-04-03T16:38:11.642Z,9.60
2023-04-03T16:40:38.464Z,9.50
2023-04-03T16:43:05.110Z,9.40
2023-04-03T16:45:31.900Z,9.30
2023-04-03T16:47:58.584Z,9.20
2023-04-03T16:50:25.405Z,9.00
2023-04-03T16:52:52.173Z,8.90
2023-04-03T16:55:18.952Z,8.80
2023-04-03T16:57:45.543Z,8.70
2023-04-03T17:00:12.633Z,8.50
2023-04-03T17:02:40.832Z,8.40
2023-04-03T17:05:08.047Z,8.30
2023-04-03T17:07:34.707Z,8.10
2023-04-03T17:10:01.381Z,8.00
2023-04-03T17:12:27.955Z,7.90
2023-04-03T17:14:54.632Z,7.80
2023-04-03T17:17:24.796Z,7.60
2023-04-03T17:19:51.609Z,7.50
2023-04-03T17:22:18.227Z,7.40
2023-04-03T17:24:45.739Z,7.30
2023-04-03T17:27:12.311Z,7.10
2023-04-03T17:29:38.886Z,7.10
2023-04-03T17:32:05.575Z,6.90
2023-04-03T17:34:33.553Z,6.80
2023-04-03T17:37:00.338Z,6.70
2023-04-03T17:39:27.011Z,6.70
2023-04-03T17:41:54.988Z,6.60
2023-04-03T17:44:22.565Z,6.50
2023-04-03T17:46:49.583Z,6.40
2023-04-03T17:49:18.602Z,6.30
2023-04-03T17:51:45.334Z,6.20
2023-04-03T17:54:12.297Z,6.10
2023-04-03T17:56:39.037Z,6.00
2023-04-03T17:59:06.660Z,5.80
2023-04-03T18:01:36.170Z,5.80
2023-04-03T18:04:04.780Z,5.60
2023-04-03T18:06:41.219Z,5.60
2023-04-03T18:09:12.255Z,5.50
2023-04-03T18:11:39.029Z,5.40
2023-04-03T18:14:08.176Z,5.40
2023-04-03T18:16:34.864Z,5.30
2023-04-03T18:19:21.255Z,5.30
2023-04-03T18:21:48.429Z,5.20
2023-04-03T18:24:17.792Z,5.10
2023-04-03T18:26:47.282Z,5.00
2023-04-03T18:29:14.378Z,4.90
2023-04-03T18:31:44.056Z,4.90
2023-04-03T18:34:11.507Z,4.80
2023-04-03T18:36:38.097Z,4.70
2023-04-03T18:39:04.672Z,4.60
2023-04-03T18:41:33.594Z,4.50
2023-04-03T18:44:03.382Z,4.50
2023-04-03T18:46:31.298Z,4.40
2023-04-03T18:48:58.046Z,4.40
2023-04-03T18:51:25.560Z,4.40
2023-04-03T18:53:52.254Z,4.30
2023-04-03T18:56:19.099Z,4.20
2023-04-03T18:58:45.710Z,4.20
2023-04-03T19:01:13.633Z,4.10
2023-04-03T19:03:40.891Z,4.10
2023-04-03T19:06:07.708Z,4.00
2023-04-03T19:08:34.411Z,4.00
2023-04-03T19:11:00.966Z,3.90
2023-04-03T19:13:27.945Z,3.90
2023-04-03T19:15:58.676Z,3.90
2023-04-03T19:18:26.931Z,3.90
2023-04-03T19:20:56.365Z,3.80
2023-04-03T19:23:24.257Z,3.70
2023-04-03T19:26:07.960Z,3.70
2023-04-03T19:28:34.973Z,3.70
2023-04-03T19:31:02.121Z,3.60
2023-04-03T19:33:28.899Z,3.60
2023-04-03T19:35:55.571Z,3.60
2023-04-03T19:38:22.215Z,3.50
2023-04-03T19:40:48.938Z,3.40
2023-04-03T19:43:16.616Z,3.40
2023-04-03T19:45:46.110Z,3.30
2023-04-03T19:48:13.381Z,3.20
2023-04-03T19:50:40.399Z,3.20
2023-04-03T19:53:08.854Z,3.20
2023-04-03T19:55:36.165Z,3.10
2023-04-03T19:58:04.343Z,3.10
2023-04-03T20:00:32.010Z,3.10
2023-04-03T20:02:58.739Z,3.10
2023-04-03T20:05:25.529Z,3.00
2023-04-03T20:07:52.527Z,3.00
2023-04-03T20:10:19.405Z,3.00
2023-04-03T20:12:45.952Z,2.90
2023-04-03T20:15:13.265Z,2.90
2023-04-03T20:17:39.977Z,2.80
2023-04-03T20:20:08.238Z,2.80
2023-04-03T20:22:37.010Z,2.70
2023-04-03T20:25:09.560Z,2.60
2023-04-03T20:27:36.189Z,2.50
2023-04-03T20:30:05.006Z,2.50
2023-04-03T20:32:32.153Z,2.50
2023-04-03T20:35:04.196Z,2.40
2023-04-03T20:37:32.285Z,2.40
2023-04-03T20:39:58.849Z,2.30
2023-04-03T20:42:26.029Z,2.30
2023-04-03T20:44:52.653Z,2.30
2023-04-03T20:47:19.486Z,2.30
2023-04-03T20:49:46.198Z,2.30
2023-04-03T20:52:12.853Z,2.30
2023-04-03T20:54:39.978Z,2.20
2023-04-03T20:57:07.046Z,2.20
2023-04-03T20:59:34.132Z,2.20
2023-04-03T21:02:01.329Z,2.10
2023-04-03T21:04:39.400Z,2.00
2023-04-03T21:07:44.098Z,2.00
2023-04-03T21:10:48.428Z,1.90
2023-04-03T21:13:53.797Z,1.90
2023-04-03T21:16:21.519Z,1.90
2023-04-03T21:19:06.753Z,1.90
2023-04-03T21:21:36.429Z,1.90
2023-04-03T21:24:09.888Z,1.90
2023-04-03T21:26:39.097Z,2.00
2023-04-03T21:29:09.481Z,2.20
2023-04-03T21:31:58.155Z,2.20
2023-04-03T21:34:27.648Z,2.20
2023-04-03T21:37:02.051Z,2.10
2023-04-03T21:39:28.917Z,2.20
2023-04-03T21:41:55.492Z,2.20
2023-04-03T21:44:22.861Z,2.20
2023-04-03T21:46:54.146Z,2.20
2023-04-03T21:49:21.594Z,2.20
2023-04-03T21:51:48.544Z,2.20
2023-04-03T21:54:15.763Z,2.10
2023-04-03T21:56:42.545Z,2.10
2023-04-03T21:59:09.597Z,2.00
2023-04-03T22:01:36.730Z,2.00
2023-04-03T22:04:03.530Z,1.90
2023-04-03T22:06:30.411Z,1.80
2023-04-03T22:08:57.047Z,1.70
2023-04-03T22:11:26.939Z,1.60
2023-04-03T22:13:55.392Z,1.50
2023-04-03T22:16:23.196Z,1.40
2023-04-03T22:18:51.959Z,1.40
2023-04-03T22:21:18.760Z,1.40
2023-04-03T22:23:45.348Z,1.40
2023-04-03T22:26:12.775Z,1.30
2023-04-03T22:28:41.977Z,1.30
2023-04-03T22:31:10.719Z,1.20
2023-04-03T22:33:38.023Z,1.20
2023-04-03T22:36:06.185Z,1.20
2023-04-03T22:38:33.285Z,1.10
2023-04-03T22:41:04.313Z,1.10
2023-04-03T22:43:33.632Z,1.00
2023-04-03T22:46:01.246Z,1.00
2023-04-03T22:48:27.828Z,0.90
2023-04-03T22:50:55.491Z,0.90
2023-04-03T22:53:22.352Z,0.90
2023-04-03T22:55:59.797Z,0.80
2023-04-03T22:58:27.469Z,0.80
2023-04-03T23:01:09.513Z,0.70
2023-04-03T23:03:37.513Z,0.70
2023-04-03T23:06:06.038Z,0.60
2023-04-03T23:08:34.947Z,0.60
2023-04-03T23:11:02.104Z,0.60
2023-04-03T23:13:28.868Z,0.60
2023-04-03T23:16:00.500Z,0.50
2023-04-03T23:18:31.369Z,0.50
2023-04-03T23:21:04.787Z,0.50
2023-04-03T23:23:31.928Z,0.50
2023-04-03T23:26:00.499Z,0.50
2023-04-03T23:28:28.278Z,0.50
2023-04-03T23:30:59.352Z,0.50
2023-04-03T23:33:26.157Z,0.50
2023-04-03T23:35:52.852Z,0.50
2023-04-03T23:38:19.429Z,0.40
2023-04-03T23:40:46.939Z,0.40
2023-04-03T23:43:13.509Z,0.40
2023-04-03T23:45:40.430Z,0.30
2023-04-03T23:48:07.464Z,0.30
2023-04-03T23:50:34.094Z,0.30
2023-04-03T23:53:00.965Z,0.20
2023-04-03T23:55:27.623Z,0.20
2023-04-03T23:57:54.266Z,0.20
